Time;durP1;ratioP1;P1;durP2;ratioP2;P2;SDS_P1;SDS_P2;PMS_P1;PMS_P2;Temp;Humidity;BMP_temperature;BMP_pressure;BME280_temperature;BME280_humidity;BME280_pressure;Samples;Min_cycle;Max_cycle;Signal;HPM_P1;HPM_P2
2021/12/21 00:02:27;;;;;;;18.10;8.40;;;;;;;-2.74;73.25;100510.55;104518;1316;108892;-67
2021/12/21 00:05:00;;;;;;;19.50;8.70;;;;;;;-2.68;72.83;100511.92;104302;1316;139089;-67
2021/12/21 00:07:32;;;;;;;21.10;9.80;;;;;;;-2.63;73.33;100506.77;104316;1315;140636;-65
2021/12/21 00:10:05;;;;;;;20.80;9.80;;;;;;;-2.56;73.37;100503.87;104069;1316;97906;-65
2021/12/21 00:12:39;;;;;;;16.00;9.30;;;;;;;-2.50;73.42;100505.73;103760;1316;139215;-65
2021/12/21 00:15:21;;;;;;;20.10;9.90;;;;;;;-2.45;73.34;100509.42;103595;1320;108852;-64
2021/12/21 00:17:58;;;;;;;20.30;9.60;;;;;;;-2.42;73.32;100510.33;102751;1315;138480;-64
2021/12/21 00:20:45;;;;;;;20.50;9.40;;;;;;;-2.42;73.38;100509.48;103965;1312;96145;-66
2021/12/21 00:23:30;;;;;;;16.70;9.20;;;;;;;-2.44;73.42;100503.83;103697;1316;138961;-66
2021/12/21 00:26:06;;;;;;;17.70;9.40;;;;;;;-2.46;73.55;100506.52;103620;1313;112468;-66
2021/12/21 00:28:47;;;;;;;18.40;10.30;;;;;;;-2.48;73.51;100509.70;102151;1315;140755;-66
2021/12/21 00:31:20;;;;;;;17.60;9.70;;;;;;;-2.48;73.80;100511.91;102277;1318;140356;-66
2021/12/21 00:33:52;;;;;;;17.60;9.00;;;;;;;-2.46;73.98;100512.65;102918;1312;97009;-66
2021/12/21 00:36:27;;;;;;;18.30;8.80;;;;;;;-2.41;73.96;100505.77;102631;1310;140305;-66
2021/12/21 00:39:04;;;;;;;18.80;9.50;;;;;;;-2.37;73.99;100508.75;104442;1315;112425;-66
2021/12/21 00:41:37;;;;;;;16.40;8.50;;;;;;;-2.32;73.90;100515.69;104248;1316;140200;-67
2021/12/21 00:44:09;;;;;;;17.20;9.30;;;;;;;-2.28;74.09;100518.86;103580;1316;108049;-66
2021/12/21 00:46:40;;;;;;;18.30;9.50;;;;;;;-2.26;74.02;100521.30;104346;1315;138742;-66
2021/12/21 00:49:15;;;;;;;19.20;9.90;;;;;;;-2.22;73.73;100525.80;103330;1322;139354;-67
2021/12/21 00:51:48;;;;;;;19.10;9.70;;;;;;;-2.22;74.21;100531.60;104494;1315;112121;-66
2021/12/21 00:54:20;;;;;;;21.00;10.40;;;;;;;-2.21;74.11;100535.54;104224;1315;139618;-66
2021/12/21 00:56:52;;;;;;;21.00;10.70;;;;;;;-2.19;73.97;100540.02;104474;1315;109008;-66
2021/12/21 00:59:24;;;;;;;20.10;10.80;;;;;;;-2.19;74.12;100542.23;103874;1315;139181;-67
2021/12/21 01:01:56;;;;;;;21.30;11.30;;;;;;;-2.20;74.63;100538.96;104466;1315;96087;-67
2021/12/21 01:04:33;;;;;;;20.50;10.90;;;;;;;-2.21;74.22;100542.67;103294;1316;139371;-66
2021/12/21 01:07:16;;;;;;;22.00;11.20;;;;;;;-2.23;74.35;100542.64;103993;1316;139766;-66
2021/12/21 01:10:29;;;;;;;23.00;10.80;;;;;;;-2.25;74.66;100540.90;104452;1315;107982;-66
2021/12/21 01:13:10;;;;;;;19.80;9.50;;;;;;;-2.27;74.67;100544.10;103727;1320;139024;-66
2021/12/21 01:16:00;;;;;;;19.70;9.90;;;;;;;-2.22;74.77;100543.87;104491;1313;97069;-66
2021/12/21 01:18:37;;;;;;;20.30;10.70;;;;;;;-2.20;75.11;100544.42;104098;1316;140222;-66
2021/12/21 01:21:11;;;;;;;22.80;10.70;;;;;;;-2.17;74.88;100549.44;104223;1315;109011;-65
2021/12/21 01:24:00;;;;;;;20.40;10.90;;;;;;;-2.16;75.03;100550.84;103407;1315;139367;-66
2021/12/21 01:26:40;;;;;;;14.40;7.70;;;;;;;-2.17;74.75;100547.73;103000;1317;97860;-66
2021/12/21 01:29:22;;;;;;;13.80;7.30;;;;;;;-2.21;74.81;100547.30;102855;1316;139084;-67
2021/12/21 01:32:01;;;;;;;12.30;7.30;;;;;;;-2.26;74.51;100543.60;103541;1316;112582;-66
2021/12/21 01:34:46;;;;;;;12.50;6.40;;;;;;;-2.31;74.24;100545.00;103053;1315;138941;-67
2021/12/21 01:37:25;;;;;;;10.40;5.80;;;;;;;-2.41;74.22;100544.60;102976;1317;140407;-66
2021/12/21 01:43:07;;;;;;;9.20;5.40;;;;;;;-2.46;74.29;100558.11;102879;1315;138703;-67
2021/12/21 01:51:20;;;;;;;11.90;6.00;;;;;;;-2.47;74.36;100549.73;104501;1316;109510;-67
2021/12/21 01:53:53;;;;;;;10.90;6.50;;;;;;;-2.46;74.24;100552.65;104224;1316;138442;-67
2021/12/21 01:56:27;;;;;;;16.00;7.70;;;;;;;-2.45;74.48;100556.60;103260;1315;95904;-68
2021/12/21 01:59:00;;;;;;;14.40;7.90;;;;;;;-2.45;74.13;100554.37;102649;1315;138489;-67
2021/12/21 02:01:33;;;;;;;13.50;7.60;;;;;;;-2.49;74.50;100553.08;103399;1315;138671;-66
2021/12/21 02:04:05;;;;;;;16.50;8.30;;;;;;;-2.60;74.20;100552.12;104269;1312;108842;-67
2021/12/21 02:06:38;;;;;;;13.80;7.50;;;;;;;-2.68;74.18;100551.73;103093;1318;138067;-66
2021/12/21 02:09:09;;;;;;;17.60;8.20;;;;;;;-2.74;74.67;100552.58;103103;1317;97981;-66
2021/12/21 02:11:41;;;;;;;13.40;7.50;;;;;;;-2.77;74.47;100555.58;102945;1316;140516;-66
2021/12/21 02:14:13;;;;;;;14.40;7.30;;;;;;;-2.78;74.80;100554.55;103079;1316;108872;-66
2021/12/21 02:16:54;;;;;;;12.70;6.40;;;;;;;-2.73;74.50;100556.02;102932;1315;139496;-66
2021/12/21 02:19:31;;;;;;;14.00;7.30;;;;;;;-2.74;74.12;100555.50;102975;1316;138555;-66
2021/12/21 02:22:22;;;;;;;13.80;7.30;;;;;;;-2.75;74.37;100562.27;103081;1315;97826;-66
2021/12/21 02:25:03;;;;;;;12.40;7.00;;;;;;;-2.72;74.26;100563.18;102867;1315;138658;-67
2021/12/21 02:27:43;;;;;;;14.60;7.60;;;;;;;-2.77;73.69;100564.11;103652;1319;109177;-66
2021/12/21 02:30:19;;;;;;;12.80;7.40;;;;;;;-2.86;73.37;100568.79;103634;1315;139247;-66
2021/12/21 02:32:52;;;;;;;13.80;7.00;;;;;;;-2.95;73.98;100572.61;103093;1315;97865;-67
2021/12/21 02:35:24;;;;;;;18.10;8.30;;;;;;;-3.02;73.76;100568.86;102888;1316;138074;-68
2021/12/21 02:37:56;;;;;;;14.00;7.80;;;;;;;-3.06;73.85;100575.04;103127;1315;112563;-67
2021/12/21 02:40:28;;;;;;;13.10;7.30;;;;;;;-3.10;73.81;100576.80;103052;1316;107843;-66
2021/12/21 02:43:01;;;;;;;13.00;7.10;;;;;;;-3.13;74.05;100579.95;102812;1315;140220;-66
2021/12/21 02:45:33;;;;;;;14.50;7.00;;;;;;;-3.15;73.88;100574.63;103743;1315;97091;-66
2021/12/21 02:48:05;;;;;;;14.20;7.00;;;;;;;-3.15;73.95;100572.41;103567;1316;139596;-66
2021/12/21 02:50:40;;;;;;;13.30;6.80;;;;;;;-3.15;73.84;100574.45;104525;1312;112396;-67
2021/12/21 02:53:12;;;;;;;14.50;7.40;;;;;;;-3.11;74.02;100572.87;103105;1315;139403;-68
2021/12/21 02:55:45;;;;;;;18.70;8.00;;;;;;;-3.04;73.88;100570.48;103994;1316;108892;-67
2021/12/21 02:58:16;;;;;;;15.70;7.70;;;;;;;-3.00;73.59;100571.96;104478;1315;96185;-66
2021/12/21 03:00:49;;;;;;;17.20;8.10;;;;;;;-3.00;73.35;100574.35;104220;1316;139333;-66
2021/12/21 03:03:21;;;;;;;12.70;6.80;;;;;;;-3.02;73.41;100575.17;104461;1312;112660;-67
2021/12/21 03:05:56;;;;;;;14.50;6.70;;;;;;;-3.00;72.98;100580.98;103965;1313;138947;-66
2021/12/21 03:08:37;;;;;;;13.80;7.40;;;;;;;-3.01;72.88;100585.73;102952;1315;108196;-66
2021/12/21 03:11:17;;;;;;;11.80;6.60;;;;;;;-3.02;72.80;100588.27;102890;1315;138974;-66
2021/12/21 03:14:03;;;;;;;12.70;7.10;;;;;;;-3.05;72.57;100595.66;102970;1317;139388;-66
2021/12/21 03:16:38;;;;;;;12.00;7.00;;;;;;;-3.08;72.51;100599.98;104122;1316;112841;-67
2021/12/21 03:19:12;;;;;;;12.50;6.40;;;;;;;-3.12;71.98;100600.88;103488;1316;138987;-67
2021/12/21 03:21:44;;;;;;;12.50;6.30;;;;;;;-3.18;72.05;100602.95;104384;1315;107924;-67
2021/12/21 03:24:16;;;;;;;10.60;5.20;;;;;;;-3.23;71.41;100607.05;104208;1317;138975;-67
2021/12/21 03:26:50;;;;;;;10.50;5.00;;;;;;;-3.24;71.52;100608.52;104394;1315;96105;-66
2021/12/21 03:29:22;;;;;;;9.90;4.90;;;;;;;-3.25;71.28;100609.85;104344;1315;139930;-66
2021/12/21 03:31:54;;;;;;;8.00;4.50;;;;;;;-3.25;71.45;100610.54;104284;1316;139440;-66
2021/12/21 03:34:27;;;;;;;9.60;4.90;;;;;;;-3.23;71.27;100609.74;104445;1315;109015;-67
2021/12/21 03:36:59;;;;;;;8.50;4.80;;;;;;;-3.20;71.41;100607.14;103570;1311;139274;-67
2021/12/21 03:39:31;;;;;;;9.80;5.20;;;;;;;-3.19;70.79;100606.49;104373;1313;97129;-67
2021/12/21 03:42:03;;;;;;;8.00;4.20;;;;;;;-3.19;70.84;100609.54;103788;1317;139718;-66
2021/12/21 03:44:36;;;;;;;7.80;4.20;;;;;;;-3.22;70.51;100610.98;103669;1316;109214;-66
2021/12/21 03:47:11;;;;;;;7.60;4.20;;;;;;;-3.27;70.27;100607.27;102887;1316;138069;-66
2021/12/21 03:52:32;;;;;;;8.80;4.60;;;;;;;-3.34;70.04;100621.52;104450;1316;96103;-66
2021/12/21 03:55:05;;;;;;;8.10;4.90;;;;;;;-3.35;70.12;100625.40;103349;1315;139822;-66
2021/12/21 03:57:37;;;;;;;7.00;4.20;;;;;;;-3.38;70.21;100637.20;103960;1315;109489;-66
2021/12/21 04:00:13;;;;;;;7.80;3.90;;;;;;;-3.43;69.92;100640.29;102844;1315;138217;-66
2021/12/21 04:02:45;;;;;;;6.80;3.80;;;;;;;-3.48;69.83;100642.35;103713;1316;96222;-66
2021/12/21 04:05:18;;;;;;;8.00;4.60;;;;;;;-3.49;69.93;100650.95;102877;1316;138135;-67
2021/12/21 04:07:50;;;;;;;7.70;4.10;;;;;;;-3.52;69.74;100654.45;102911;1316;138158;-67
2021/12/21 04:10:22;;;;;;;8.30;4.50;;;;;;;-3.56;69.92;100655.19;103045;1315;108894;-66
2021/12/21 04:12:54;;;;;;;9.40;4.40;;;;;;;-3.57;70.03;100659.91;102828;1315;139493;-66
2021/12/21 04:15:28;;;;;;;7.70;4.50;;;;;;;-3.56;70.20;100661.47;103008;1315;97884;-67
2021/12/21 04:18:02;;;;;;;7.80;4.00;;;;;;;-3.54;70.16;100665.27;102769;1316;138837;-66
2021/12/21 04:20:36;;;;;;;9.00;4.70;;;;;;;-3.53;69.98;100670.91;103073;1315;112530;-66
2021/12/21 04:23:08;;;;;;;6.50;4.10;;;;;;;-3.49;70.18;100671.02;102893;1316;138352;-66
2021/12/21 04:25:40;;;;;;;5.90;4.30;;;;;;;-3.47;69.97;100673.30;102920;1315;138575;-66
2021/12/21 04:28:13;;;;;;;5.90;3.90;;;;;;;-3.47;69.92;100675.50;104438;1315;96350;-66
2021/12/21 04:30:45;;;;;;;6.80;4.00;;;;;;;-3.52;69.37;100675.34;104127;1315;138996;-66
2021/12/21 04:33:17;;;;;;;7.30;4.10;;;;;;;-3.53;69.75;100680.42;103884;1316;112518;-67
2021/12/21 04:35:50;;;;;;;5.60;3.90;;;;;;;-3.52;69.51;100686.40;102849;1316;138405;-68
2021/12/21 04:38:25;;;;;;;6.10;3.60;;;;;;;-3.54;69.03;100689.59;102976;1315;106940;-68
2021/12/21 04:41:05;;;;;;;9.40;4.20;;;;;;;-3.58;68.83;100692.35;102943;1315;140452;-68
2021/12/21 04:43:38;;;;;;;5.70;3.90;;;;;;;-3.65;68.91;100701.63;102923;1316;138180;-68
2021/12/21 04:46:11;;;;;;;6.80;3.80;;;;;;;-3.67;69.03;100711.77;102872;1315;112509;-66
2021/12/21 04:48:44;;;;;;;6.40;4.20;;;;;;;-3.68;68.84;100714.80;102835;1315;139819;-66
2021/12/21 04:51:16;;;;;;;8.40;3.70;;;;;;;-3.69;68.72;100713.76;103084;1315;109184;-66
2021/12/21 04:53:48;;;;;;;4.70;3.50;;;;;;;-3.75;68.42;100717.80;103004;1315;139580;-66
2021/12/21 04:56:20;;;;;;;6.60;3.60;;;;;;;-3.81;68.19;100723.17;104461;1311;96445;-66
2021/12/21 04:58:52;;;;;;;7.30;4.10;;;;;;;-3.87;68.03;100725.52;104157;1315;140982;-66
2021/12/21 05:01:24;;;;;;;5.40;3.50;;;;;;;-3.96;67.78;100729.84;104316;1315;138346;-67
2021/12/21 05:03:56;;;;;;;5.00;3.30;;;;;;;-4.00;67.70;100731.70;104474;1311;106665;-65
2021/12/21 05:06:28;;;;;;;4.90;3.40;;;;;;;-4.06;67.46;100738.48;104248;1315;138771;-66
2021/12/21 05:09:11;;;;;;;9.80;3.70;;;;;;;-4.09;67.67;100745.35;104026;1312;97885;-67
2021/12/21 05:11:44;;;;;;;6.30;3.60;;;;;;;-4.10;67.51;100743.45;103403;1319;138006;-66
2021/12/21 05:14:16;;;;;;;6.20;3.30;;;;;;;-4.12;67.16;100750.52;104467;1314;108917;-67
2021/12/21 05:16:48;;;;;;;5.60;3.70;;;;;;;-4.15;67.07;100752.08;102969;1316;139381;-69
2021/12/21 05:19:20;;;;;;;5.60;2.80;;;;;;;-4.18;66.53;100752.80;102950;1315;139321;-67
2021/12/21 05:21:52;;;;;;;4.80;2.60;;;;;;;-4.21;66.29;100755.45;103013;1315;97827;-67
2021/12/21 05:24:24;;;;;;;3.90;2.60;;;;;;;-4.24;65.58;100755.17;103344;1317;138830;-68
2021/12/21 05:26:56;;;;;;;3.60;2.40;;;;;;;-4.33;64.35;100759.80;103634;1318;109047;-68
2021/12/21 05:29:31;;;;;;;4.20;2.20;;;;;;;-4.45;64.14;100765.61;104224;1315;139693;-66
2021/12/21 05:32:03;;;;;;;3.70;2.30;;;;;;;-4.57;63.97;100762.30;104117;1315;138463;-67
2021/12/21 05:34:35;;;;;;;4.10;2.10;;;;;;;-4.67;63.94;100768.89;103377;1315;98080;-67
2021/12/21 05:37:08;;;;;;;2.90;2.20;;;;;;;-4.75;63.62;100769.25;103193;1315;138084;-67
2021/12/21 05:39:51;;;;;;;6.30;3.30;;;;;;;-4.84;63.49;100767.39;103951;1315;109025;-67
2021/12/21 05:42:23;;;;;;;4.20;2.60;;;;;;;-4.94;63.78;100773.12;104243;1316;140039;-67
2021/12/21 05:44:55;;;;;;;5.70;2.60;;;;;;;-5.02;63.78;100774.17;104410;1315;96180;-67
2021/12/21 05:47:27;;;;;;;5.40;2.60;;;;;;;-5.07;63.82;100779.53;103954;1318;138786;-67
2021/12/21 05:49:59;;;;;;;4.90;2.40;;;;;;;-5.15;63.73;100786.70;104306;1318;137967;-67
2021/12/21 05:52:31;;;;;;;11.40;2.70;;;;;;;-5.22;63.65;100788.60;103424;1315;108429;-67
2021/12/21 05:55:04;;;;;;;3.60;2.40;;;;;;;-5.30;63.49;100788.33;102971;1316;138693;-67
2021/12/21 05:57:36;;;;;;;3.60;2.30;;;;;;;-5.39;63.00;100792.52;104422;1312;96426;-67
2021/12/21 06:00:12;;;;;;;4.40;2.40;;;;;;;-5.51;62.86;100793.25;103279;1316;139412;-67
2021/12/21 06:02:45;;;;;;;6.80;1.90;;;;;;;-5.61;62.91;100793.48;104407;1311;113034;-65
2021/12/21 06:05:17;;;;;;;4.10;2.40;;;;;;;-5.69;63.25;100800.95;104303;1313;139038;-67
2021/12/21 06:07:52;;;;;;;4.50;2.60;;;;;;;-5.73;63.02;100800.30;104143;1317;139571;-66
2021/12/21 06:10:29;;;;;;;7.70;2.90;;;;;;;-5.73;63.40;100805.70;103441;1315;97854;-68
2021/12/21 06:15:57;;;;;;;3.60;2.10;;;;;;;-5.69;63.31;100809.89;103892;1322;112861;-66
2021/12/21 06:26:58;;;;;;;7.00;2.60;;;;;;;-5.65;63.26;100826.52;103244;1324;96185;-67
2021/12/21 06:29:31;;;;;;;8.00;2.50;;;;;;;-5.69;63.46;100827.88;103112;1324;138852;-67
2021/12/21 06:32:03;;;;;;;5.20;2.60;;;;;;;-5.69;63.39;100830.43;103416;1324;139200;-67
2021/12/21 06:34:38;;;;;;;5.30;3.00;;;;;;;-5.69;63.55;100826.52;103679;1325;108979;-67
2021/12/21 06:37:12;;;;;;;6.30;2.30;;;;;;;-5.67;63.25;100833.04;102130;1324;235685;-68
2021/12/21 06:39:45;;;;;;;3.30;2.50;;;;;;;-5.59;63.49;100838.63;103271;1326;97089;-67
2021/12/21 06:42:19;;;;;;;4.40;2.50;;;;;;;-5.52;63.43;100841.96;103032;1324;138792;-68
2021/12/21 06:44:55;;;;;;;4.50;2.30;;;;;;;-5.47;63.44;100841.70;103646;1324;108977;-67
2021/12/21 06:53:19;;;;;;;7.00;3.00;;;;;;;-5.44;62.76;100842.46;103046;1323;138375;-67
2021/12/21 06:55:51;;;;;;;7.30;2.70;;;;;;;-5.51;63.27;100843.37;103281;1324;138515;-67
2021/12/21 06:58:23;;;;;;;5.20;3.40;;;;;;;-5.61;62.55;100843.10;102704;1327;107941;-67
2021/12/21 07:00:57;;;;;;;5.70;2.70;;;;;;;-5.68;62.61;100845.89;102936;1324;139324;-67
2021/12/21 07:03:30;;;;;;;7.30;3.10;;;;;;;-5.72;62.57;100847.23;102971;1326;98064;-67
2021/12/21 07:06:06;;;;;;;7.00;2.70;;;;;;;-5.77;62.64;100847.15;102289;1323;138088;-68
2021/12/21 07:08:46;;;;;;;6.40;2.90;;;;;;;-5.80;62.45;100857.21;102396;1321;138345;-68
2021/12/21 07:11:25;;;;;;;6.90;3.50;;;;;;;-5.84;62.64;100861.79;102297;1320;139744;-68
2021/12/21 07:19:39;;;;;;;6.70;3.40;;;;;;;-5.65;62.89;100858.85;102562;1320;138397;-67
2021/12/21 07:22:12;;;;;;;6.60;2.70;;;;;;;-5.49;62.97;100857.02;102673;1324;112910;-67
2021/12/21 07:24:44;;;;;;;6.80;3.50;;;;;;;-5.31;62.96;100856.06;102489;1320;138513;-67
2021/12/21 07:27:17;;;;;;;10.80;3.90;;;;;;;-5.11;62.79;100858.09;103043;1315;109047;-67
2021/12/21 07:29:49;;;;;;;6.10;3.40;;;;;;;-4.84;62.95;100859.48;102957;1316;140013;-67
2021/12/21 07:32:22;;;;;;;12.00;4.10;;;;;;;-4.59;62.61;100858.42;102871;1314;138303;-67
2021/12/21 07:34:54;;;;;;;8.60;3.90;;;;;;;-4.36;62.07;100855.26;102967;1315;139376;-67
2021/12/21 07:37:26;;;;;;;10.20;6.00;;;;;;;-4.11;62.23;100856.16;103017;1315;138304;-68
2021/12/21 07:39:58;;;;;;;14.00;6.50;;;;;;;-3.82;62.23;100858.23;103083;1315;109193;-67
2021/12/21 07:42:30;;;;;;;14.90;6.00;;;;;;;-3.52;62.06;100862.15;102880;1316;139764;-67
2021/12/21 07:45:03;;;;;;;10.30;5.00;;;;;;;-3.21;61.77;100857.27;103062;1315;97861;-67
2021/12/21 07:47:35;;;;;;;8.20;5.00;;;;;;;-2.87;61.80;100863.48;102969;1316;138718;-68
2021/12/21 07:50:13;;;;;;;9.10;4.70;;;;;;;-2.53;61.15;100868.45;102910;1315;139085;-67
2021/12/21 07:52:46;;;;;;;14.00;4.90;;;;;;;-2.16;61.07;100866.15;104447;1315;107838;-67
2021/12/21 07:55:23;;;;;;;46.60;17.90;;;;;;;-1.75;61.03;100862.71;104246;1315;139499;-67
2021/12/21 07:57:56;;;;;;;11.70;5.40;;;;;;;-1.34;60.39;100859.70;104484;1315;96342;-68
2021/12/21 08:00:28;;;;;;;11.50;4.30;;;;;;;-1.01;59.22;100861.56;103071;1315;139261;-67
2021/12/21 08:03:01;;;;;;;11.80;4.50;;;;;;;-0.67;59.63;100866.81;102956;1315;108924;-68
2021/12/21 08:05:35;;;;;;;10.50;5.00;;;;;;;-0.24;59.12;100863.67;102908;1315;138472;-68
2021/12/21 08:08:13;;;;;;;12.30;4.60;;;;;;;0.18;58.72;100864.02;102846;1315;139722;-67
2021/12/21 08:10:51;;;;;;;11.20;4.20;;;;;;;0.60;58.52;100860.03;102994;1315;97858;-67
2021/12/21 08:13:23;;;;;;;8.40;4.10;;;;;;;0.98;57.92;100862.07;102731;1315;138445;-69
2021/12/21 08:15:55;;;;;;;9.20;3.90;;;;;;;1.36;57.41;100863.17;102963;1315;109315;-68
2021/12/21 08:18:27;;;;;;;10.20;4.10;;;;;;;1.72;56.89;100864.55;102726;1315;139266;-68
2021/12/21 08:20:59;;;;;;;7.50;3.90;;;;;;;2.11;56.17;100860.92;103014;1315;97884;-68
2021/12/21 08:23:31;;;;;;;6.10;3.60;;;;;;;2.39;55.28;100862.96;102819;1315;137922;-69
2021/12/21 08:26:04;;;;;;;7.60;3.60;;;;;;;2.58;54.42;100856.31;102869;1313;139396;-69
2021/12/21 08:28:36;;;;;;;9.20;4.20;;;;;;;2.76;53.90;100856.30;102933;1315;107802;-69
2021/12/21 08:31:10;;;;;;;7.80;4.00;;;;;;;3.05;53.70;100855.19;102641;1316;139017;-68
2021/12/21 08:33:43;;;;;;;9.50;4.40;;;;;;;3.14;52.14;100849.92;102938;1315;97992;-67
2021/12/21 08:36:15;;;;;;;10.30;4.40;;;;;;;3.10;51.65;100846.13;102850;1317;138439;-68
2021/12/21 08:38:52;;;;;;;11.00;5.30;;;;;;;3.16;51.50;100848.41;102807;1315;137884;-67
2021/12/21 08:41:26;;;;;;;15.90;4.80;;;;;;;3.24;51.35;100848.63;102892;1315;139076;-68
2021/12/21 08:44:03;;;;;;;11.00;4.70;;;;;;;3.49;51.25;100848.11;102923;1315;138084;-68
2021/12/21 08:46:36;;;;;;;11.70;5.30;;;;;;;3.77;50.64;100841.91;102940;1316;98122;-67
2021/12/21 08:49:08;;;;;;;12.50;4.60;;;;;;;3.93;50.11;100836.83;102923;1315;137920;-69
2021/12/21 08:51:40;;;;;;;11.70;4.20;;;;;;;4.07;49.48;100835.85;102901;1316;111675;-68
2021/12/21 08:54:13;;;;;;;6.80;3.60;;;;;;;4.25;49.20;100835.90;102833;1315;139484;-69
2021/12/21 08:56:46;;;;;;;8.10;4.70;;;;;;;4.38;48.87;100839.39;102865;1315;137643;-69
2021/12/21 08:59:18;;;;;;;13.00;4.30;;;;;;;4.59;48.69;100837.37;102803;1315;138103;-69
2021/12/21 09:01:53;;;;;;;10.70;3.80;;;;;;;4.75;47.79;100839.46;102861;1315;138317;-68
2021/12/21 09:04:26;;;;;;;8.90;3.60;;;;;;;4.70;46.99;100835.14;102998;1315;112683;-69
2021/12/21 09:06:58;;;;;;;8.70;4.20;;;;;;;4.67;46.77;100830.49;102783;1315;139362;-68
2021/12/21 09:09:30;;;;;;;10.00;5.40;;;;;;;4.70;46.63;100824.80;103020;1316;109094;-68
2021/12/21 09:12:02;;;;;;;10.40;5.70;;;;;;;4.88;46.80;100822.40;102841;1316;138258;-69
2021/12/21 09:14:34;;;;;;;9.80;5.30;;;;;;;4.95;46.19;100824.64;102925;1315;138012;-68
2021/12/21 09:17:07;;;;;;;11.20;6.20;;;;;;;4.98;46.30;100821.38;102662;1315;138524;-68
2021/12/21 09:19:39;;;;;;;17.40;7.10;;;;;;;5.18;45.92;100824.98;102781;1315;138062;-69
2021/12/21 09:22:11;;;;;;;16.90;8.80;;;;;;;5.33;45.84;100820.83;102873;1315;109533;-68
2021/12/21 09:24:43;;;;;;;19.00;10.60;;;;;;;5.44;45.60;100815.47;102649;1317;141914;-69
2021/12/21 09:27:16;;;;;;;19.50;10.00;;;;;;;5.55;45.59;100814.73;102910;1315;97862;-68
2021/12/21 09:29:48;;;;;;;18.70;9.50;;;;;;;5.69;45.09;100811.42;102842;1315;137959;-68
2021/12/21 09:32:20;;;;;;;14.10;8.30;;;;;;;5.71;44.71;100811.76;102624;1315;137889;-68
2021/12/21 09:34:53;;;;;;;14.20;8.80;;;;;;;5.76;44.59;100813.83;102722;1316;108748;-68
2021/12/21 09:37:26;;;;;;;14.70;8.80;;;;;;;5.75;44.00;100804.69;102568;1318;138327;-67
2021/12/21 09:39:58;;;;;;;15.90;7.90;;;;;;;5.71;43.85;100804.34;102823;1317;97749;-69
2021/12/21 09:42:32;;;;;;;12.40;7.00;;;;;;;5.63;43.42;100800.23;102750;1315;138123;-69
2021/12/21 09:45:06;;;;;;;14.10;7.00;;;;;;;5.70;43.66;100800.89;102984;1316;109128;-69
2021/12/21 09:47:38;;;;;;;10.50;6.40;;;;;;;5.86;43.87;100800.67;102784;1315;137995;-69
2021/12/21 09:50:14;;;;;;;12.90;6.10;;;;;;;6.09;43.74;100796.63;103135;1319;138046;-69
2021/12/21 09:52:46;;;;;;;12.20;5.00;;;;;;;6.28;42.92;100789.96;103837;1316;96000;-69
2021/12/21 09:55:19;;;;;;;10.50;4.90;;;;;;;6.37;42.74;100783.00;104232;1315;138694;-68
2021/12/21 09:57:53;;;;;;;11.00;4.40;;;;;;;6.40;42.35;100785.91;103816;1314;106428;-67
2021/12/21 10:00:28;;;;;;;13.20;6.30;;;;;;;6.43;42.27;100792.79;104315;1315;138194;-69
2021/12/21 10:03:04;;;;;;;10.60;4.80;;;;;;;6.44;42.14;100794.69;103746;1315;138155;-68
2021/12/21 10:05:39;;;;;;;9.00;4.20;;;;;;;6.31;41.20;100799.27;104243;1315;138642;-68
2021/12/21 10:08:15;;;;;;;10.30;6.50;;;;;;;6.07;41.52;100800.95;103621;1315;138656;-67
2021/12/21 10:10:51;;;;;;;10.90;5.80;;;;;;;5.75;40.97;100802.26;104353;1315;108080;-68
2021/12/21 10:13:25;;;;;;;8.90;6.00;;;;;;;5.32;41.11;100807.20;102927;1325;138518;-67
2021/12/21 10:15:59;;;;;;;9.10;5.00;;;;;;;5.29;41.95;100803.59;104359;1315;95947;-69
2021/12/21 10:18:34;;;;;;;12.00;5.10;;;;;;;5.22;41.52;100799.12;104362;1316;137682;-68
2021/12/21 10:21:08;;;;;;;9.90;5.40;;;;;;;5.18;41.77;100801.70;104342;1315;137872;-68
2021/12/21 10:23:42;;;;;;;11.70;6.10;;;;;;;5.22;42.15;100806.54;104273;1315;139734;-68
2021/12/21 10:26:20;;;;;;;11.10;5.30;;;;;;;5.22;42.32;100806.89;104366;1315;137848;-67
2021/12/21 10:28:54;;;;;;;9.50;5.00;;;;;;;5.17;41.88;100812.21;102506;1313;97346;-68
2021/12/21 10:31:30;;;;;;;9.50;5.30;;;;;;;5.13;41.93;100813.27;103205;1315;138683;-68
2021/12/21 10:34:04;;;;;;;9.30;5.10;;;;;;;5.12;41.69;100814.30;102616;1315;112519;-69
2021/12/21 10:36:44;;;;;;;12.50;4.60;;;;;;;5.00;41.48;100814.47;103023;1315;138801;-68
2021/12/21 10:39:24;;;;;;;9.40;4.70;;;;;;;5.03;41.86;100814.48;103203;1315;138445;-68
2021/12/21 10:42:00;;;;;;;8.50;4.20;;;;;;;4.99;42.26;100808.96;102605;1313;139490;-67
2021/12/21 10:44:33;;;;;;;7.20;4.20;;;;;;;5.08;42.00;100810.34;101879;1315;139024;-67
2021/12/21 10:47:07;;;;;;;6.60;4.10;;;;;;;4.96;41.39;100810.52;101099;1315;139299;-70
2021/12/21 10:49:41;;;;;;;8.10;4.50;;;;;;;4.99;42.20;100812.06;101553;1315;137913;-70
2021/12/21 10:52:15;;;;;;;7.90;4.60;;;;;;;5.02;41.92;100804.48;101559;1315;108875;-67
2021/12/21 10:54:49;;;;;;;10.50;4.70;;;;;;;4.92;42.25;100802.25;101439;1315;137622;-67
2021/12/21 10:57:29;;;;;;;12.00;4.70;;;;;;;4.93;41.82;100802.08;101503;1315;138469;-68
2021/12/21 11:00:07;;;;;;;8.00;4.60;;;;;;;4.83;41.29;100804.84;101718;1312;138023;-67
2021/12/21 11:02:39;;;;;;;9.20;5.00;;;;;;;4.56;41.53;100809.81;102474;1315;138015;-68
2021/12/21 11:05:15;;;;;;;8.90;4.80;;;;;;;4.39;41.40;100803.91;102923;1315;138271;-68
2021/12/21 11:07:53;;;;;;;8.90;5.20;;;;;;;4.16;41.62;100794.92;104326;1315;138150;-68
2021/12/21 11:10:30;;;;;;;8.40;4.70;;;;;;;3.94;41.95;100798.30;103170;1315;97889;-68
2021/12/21 11:13:15;;;;;;;9.20;4.80;;;;;;;3.77;42.61;100792.38;102876;1319;138659;-69
2021/12/21 11:15:52;;;;;;;7.90;4.30;;;;;;;3.82;42.85;100798.77;103114;1315;108472;-72
2021/12/21 11:18:27;;;;;;;9.60;4.30;;;;;;;3.81;43.70;100799.27;102960;1316;138687;-73
2021/12/21 11:21:00;;;;;;;6.10;3.70;;;;;;;3.82;44.69;100799.11;102842;1315;139374;-72
2021/12/21 11:23:33;;;;;;;6.90;4.60;;;;;;;3.89;44.23;100802.91;102141;1315;139450;-74
2021/12/21 11:26:07;;;;;;;8.50;4.60;;;;;;;3.84;43.74;100797.73;101549;1312;137750;-73
2021/12/21 11:28:41;;;;;;;10.10;5.00;;;;;;;3.74;43.39;100799.76;101463;1315;108541;-73
2021/12/21 11:31:16;;;;;;;7.90;4.80;;;;;;;3.58;43.32;100804.16;101690;1315;139103;-72
2021/12/21 11:33:56;;;;;;;8.70;4.70;;;;;;;3.54;44.00;100803.27;102173;1315;97609;-73
2021/12/21 11:39:20;;;;;;;7.60;4.40;;;;;;;3.25;43.09;100801.89;102571;1315;138164;-74
2021/12/21 11:41:53;;;;;;;9.10;5.20;;;;;;;3.01;43.38;100798.45;102770;1315;138170;-72
2021/12/21 11:44:33;;;;;;;9.20;5.60;;;;;;;2.84;43.89;100797.46;103485;1316;137858;-73
2021/12/21 11:47:13;;;;;;;10.60;5.30;;;;;;;2.67;43.93;100794.92;103487;1315;139557;-72
2021/12/21 11:49:50;;;;;;;8.60;5.60;;;;;;;2.51;44.12;100794.45;102855;1315;137771;-71
2021/12/21 11:52:24;;;;;;;12.80;6.90;;;;;;;2.36;44.19;100794.64;102631;1315;111575;-71
2021/12/21 11:54:59;;;;;;;10.50;5.90;;;;;;;2.27;44.51;100793.85;102769;1315;138366;-72
2021/12/21 11:57:41;;;;;;;10.40;5.60;;;;;;;2.21;44.94;100787.45;101617;1316;139791;-72
2021/12/21 12:00:16;;;;;;;10.60;6.00;;;;;;;2.15;45.05;100783.61;102531;1310;139028;-73
2021/12/21 12:02:51;;;;;;;12.30;6.10;;;;;;;2.13;45.44;100785.64;102724;1315;137764;-72
2021/12/21 12:05:27;;;;;;;11.40;6.60;;;;;;;2.12;45.61;100782.89;102758;1315;139731;-72
2021/12/21 12:08:04;;;;;;;9.50;6.60;;;;;;;2.07;45.81;100781.64;102835;1312;138410;-72
2021/12/21 12:10:39;;;;;;;14.60;7.40;;;;;;;2.02;46.17;100787.42;102916;1315;107011;-71
2021/12/21 12:13:14;;;;;;;13.10;7.30;;;;;;;1.96;46.35;100788.02;102561;1315;139035;-72
2021/12/21 12:15:54;;;;;;;14.00;7.60;;;;;;;1.87;46.70;100791.20;101712;1315;98352;-71
2021/12/21 12:18:28;;;;;;;13.00;7.40;;;;;;;1.75;46.74;100790.01;101343;1316;138387;-71
2021/12/21 12:21:13;;;;;;;12.90;7.70;;;;;;;1.59;46.93;100785.52;101264;1315;139011;-72